sensor_id;sensor_type;location;lat;lon;timestamp;pressure;altitude;pressure_sealevel;temperature;humidity
70952;BME280;69214;55.880;37.542;2023-04-15T00:01:29;99999.16;;;-0.39;33.18
70952;BME280;69214;55.880;37.542;2023-04-15T00:03:58;99996.63;;;-0.41;33.01
70952;BME280;69214;55.880;37.542;2023-04-15T00:06:24;100001.44;;;-0.44;33.51
70952;BME280;69214;55.880;37.542;2023-04-15T00:08:50;99993.13;;;-0.51;33.05
70952;BME280;69214;55.880;37.542;2023-04-15T00:11:16;100005.56;;;-0.50;32.86
70952;BME280;69214;55.880;37.542;2023-04-15T00:13:42;99987.97;;;-0.62;33.59
70952;BME280;69214;55.880;37.542;2023-04-15T00:16:09;99990.34;;;-0.59;33.55
70952;BME280;69214;55.880;37.542;2023-04-15T00:18:35;100010.06;;;-0.50;33.56
70952;BME280;69214;55.880;37.542;2023-04-15T00:21:02;99995.41;;;-0.56;33.29
70952;BME280;69214;55.880;37.542;2023-04-15T00:23:28;100011.25;;;-0.62;33.58
70952;BME280;69214;55.880;37.542;2023-04-15T00:25:54;100020.56;;;-0.67;33.99
70952;BME280;69214;55.880;37.542;2023-04-15T00:28:20;100028.47;;;-0.65;33.58
70952;BME280;69214;55.880;37.542;2023-04-15T00:30:46;100015.22;;;-0.67;33.49
70952;BME280;69214;55.880;37.542;2023-04-15T00:33:12;100019.75;;;-0.77;33.02
70952;BME280;69214;55.880;37.542;2023-04-15T00:35:38;100031.19;;;-0.84;33.71
70952;BME280;69214;55.880;37.542;2023-04-15T00:38:05;100024.72;;;-0.91;34.14
70952;BME280;69214;55.880;37.542;2023-04-15T00:40:31;100029.25;;;-0.92;33.47
70952;BME280;69214;55.880;37.542;2023-04-15T00:42:57;100034.59;;;-0.92;34.35
70952;BME280;69214;55.880;37.542;2023-04-15T00:45:23;100034.44;;;-0.90;34.13
70952;BME280;69214;55.880;37.542;2023-04-15T00:47:50;100038.97;;;-0.91;33.21
70952;BME280;69214;55.880;37.542;2023-04-15T00:50:16;100057.84;;;-0.92;33.75
70952;BME280;69214;55.880;37.542;2023-04-15T00:52:42;100043.75;;;-0.94;33.78
70952;BME280;69214;55.880;37.542;2023-04-15T00:55:08;100037.00;;;-0.99;34.02
70952;BME280;69214;55.880;37.542;2023-04-15T00:57:35;100044.06;;;-0.98;34.14
70952;BME280;69214;55.880;37.542;2023-04-15T01:00:01;100030.56;;;-1.15;33.89
70952;BME280;69214;55.880;37.542;2023-04-15T01:02:30;100063.09;;;-1.10;33.69
70952;BME280;69214;55.880;37.542;2023-04-15T01:04:56;100052.81;;;-1.15;33.98
70952;BME280;69214;55.880;37.542;2023-04-15T01:07:21;100059.16;;;-1.16;34.44
70952;BME280;69214;55.880;37.542;2023-04-15T01:09:47;100043.66;;;-1.32;34.11
70952;BME280;69214;55.880;37.542;2023-04-15T01:12:14;100063.09;;;-1.20;34.67
70952;BME280;69214;55.880;37.542;2023-04-15T01:14:41;100071.28;;;-1.21;33.73
70952;BME280;69214;55.880;37.542;2023-04-15T01:17:07;100089.59;;;-1.26;34.38
70952;BME280;69214;55.880;37.542;2023-04-15T01:19:34;100067.06;;;-1.24;34.18
70952;BME280;69214;55.880;37.542;2023-04-15T01:22:02;100088.34;;;-1.22;33.63
70952;BME280;69214;55.880;37.542;2023-04-15T01:24:29;100074.09;;;-1.23;34.06
70952;BME280;69214;55.880;37.542;2023-04-15T01:26:56;100081.84;;;-1.20;34.35
70952;BME280;69214;55.880;37.542;2023-04-15T01:29:22;100085.09;;;-1.26;34.18
70952;BME280;69214;55.880;37.542;2023-04-15T01:31:50;100091.44;;;-1.27;34.69
70952;BME280;69214;55.880;37.542;2023-04-15T01:34:35;100086.91;;;-1.26;34.42
70952;BME280;69214;55.880;37.542;2023-04-15T01:37:19;100093.41;;;-1.29;34.04
70952;BME280;69214;55.880;37.542;2023-04-15T01:39:45;100094.38;;;-1.30;34.78
70952;BME280;69214;55.880;37.542;2023-04-15T01:42:11;100089.47;;;-1.35;34.48
70952;BME280;69214;55.880;37.542;2023-04-15T01:44:37;100105.94;;;-1.29;34.16
70952;BME280;69214;55.880;37.542;2023-04-15T01:47:02;100086.78;;;-1.35;34.29
70952;BME280;69214;55.880;37.542;2023-04-15T01:49:28;100084.53;;;-1.29;34.15
70952;BME280;69214;55.880;37.542;2023-04-15T01:51:54;100111.44;;;-1.31;34.35
70952;BME280;69214;55.880;37.542;2023-04-15T01:54:20;100102.41;;;-1.40;34.42
70952;BME280;69214;55.880;37.542;2023-04-15T01:56:45;100105.22;;;-1.41;34.51
70952;BME280;69214;55.880;37.542;2023-04-15T01:59:12;100113.41;;;-1.43;34.72
70952;BME280;69214;55.880;37.542;2023-04-15T02:01:38;100136.50;;;-1.42;34.48
70952;BME280;69214;55.880;37.542;2023-04-15T02:04:04;100110.44;;;-1.40;34.20
70952;BME280;69214;55.880;37.542;2023-04-15T02:06:30;100109.59;;;-1.40;34.69
70952;BME280;69214;55.880;37.542;2023-04-15T02:08:56;100109.16;;;-1.45;34.88
70952;BME280;69214;55.880;37.542;2023-04-15T02:11:21;100121.28;;;-1.51;34.36
70952;BME280;69214;55.880;37.542;2023-04-15T02:13:47;100108.00;;;-1.62;34.88
70952;BME280;69214;55.880;37.542;2023-04-15T02:16:17;100108.00;;;-1.62;34.74
70952;BME280;69214;55.880;37.542;2023-04-15T02:18:45;100126.19;;;-1.56;35.28
70952;BME280;69214;55.880;37.542;2023-04-15T02:21:11;100119.84;;;-1.55;35.02
70952;BME280;69214;55.880;37.542;2023-04-15T02:23:37;100121.66;;;-1.65;35.25
70952;BME280;69214;55.880;37.542;2023-04-15T02:26:03;100128.56;;;-1.63;35.04
70952;BME280;69214;55.880;37.542;2023-04-15T02:28:30;100123.78;;;-1.69;34.75
70952;BME280;69214;55.880;37.542;2023-04-15T02:30:56;100139.41;;;-1.64;34.74
70952;BME280;69214;55.880;37.542;2023-04-15T02:33:23;100132.09;;;-1.62;35.20
70952;BME280;69214;55.880;37.542;2023-04-15T02:35:49;100134.34;;;-1.67;34.89
70952;BME280;69214;55.880;37.542;2023-04-15T02:38:15;100144.94;;;-1.56;34.64
70952;BME280;69214;55.880;37.542;2023-04-15T02:40:42;100154.09;;;-1.49;34.37
70952;BME280;69214;55.880;37.542;2023-04-15T02:43:08;100162.13;;;-1.49;34.62
70952;BME280;69214;55.880;37.542;2023-04-15T02:45:37;100152.97;;;-1.46;34.88
70952;BME280;69214;55.880;37.542;2023-04-15T02:48:04;100160.44;;;-1.50;34.72
70952;BME280;69214;55.880;37.542;2023-04-15T02:50:30;100165.09;;;-1.42;34.70
70952;BME280;69214;55.880;37.542;2023-04-15T02:52:56;100163.00;;;-1.39;34.47
70952;BME280;69214;55.880;37.542;2023-04-15T02:55:22;100175.97;;;-1.34;34.60
70952;BME280;69214;55.880;37.542;2023-04-15T02:57:48;100174.13;;;-1.34;35.06
70952;BME280;69214;55.880;37.542;2023-04-15T03:00:13;100185.53;;;-1.32;34.41
70952;BME280;69214;55.880;37.542;2023-04-15T03:02:41;100182.44;;;-1.27;34.99
70952;BME280;69214;55.880;37.542;2023-04-15T03:05:11;100177.09;;;-1.27;34.42
70952;BME280;69214;55.880;37.542;2023-04-15T03:07:38;100177.25;;;-1.19;34.93
70952;BME280;69214;55.880;37.542;2023-04-15T03:10:06;100182.31;;;-1.16;34.82
70952;BME280;69214;55.880;37.542;2023-04-15T03:12:32;100183.59;;;-1.10;34.59
70952;BME280;69214;55.880;37.542;2023-04-15T03:14:58;100176.97;;;-1.16;34.16
70952;BME280;69214;55.880;37.542;2023-04-15T03:17:32;100201.94;;;-0.96;34.39
70952;BME280;69214;55.880;37.542;2023-04-15T03:19:59;100178.25;;;-1.01;34.75
70952;BME280;69214;55.880;37.542;2023-04-15T03:22:26;100196.44;;;-0.85;34.58
70952;BME280;69214;55.880;37.542;2023-04-15T03:24:52;100189.53;;;-0.78;34.14
70952;BME280;69214;55.880;37.542;2023-04-15T03:27:18;100199.41;;;-0.69;33.99
70952;BME280;69214;55.880;37.542;2023-04-15T03:29:44;100203.91;;;-0.59;34.34
70952;BME280;69214;55.880;37.542;2023-04-15T03:32:11;100195.84;;;-0.50;34.24
70952;BME280;69214;55.880;37.542;2023-04-15T03:34:37;100195.00;;;-0.50;34.57
70952;BME280;69214;55.880;37.542;2023-04-15T03:37:03;100207.28;;;-0.38;33.96
70952;BME280;69214;55.880;37.542;2023-04-15T03:39:28;100200.75;;;-0.26;34.04
70952;BME280;69214;55.880;37.542;2023-04-15T03:41:54;100200.19;;;-0.20;33.69
70952;BME280;69214;55.880;37.542;2023-04-15T03:44:20;100205.66;;;-0.12;33.67
70952;BME280;69214;55.880;37.542;2023-04-15T03:46:46;100202.13;;;-0.12;33.86
70952;BME280;69214;55.880;37.542;2023-04-15T03:49:12;100178.00;;;-0.12;34.03
70952;BME280;69214;55.880;37.542;2023-04-15T03:51:38;100184.47;;;-0.05;33.38
70952;BME280;69214;55.880;37.542;2023-04-15T03:54:04;100216.53;;;0.24;33.54
70952;BME280;69214;55.880;37.542;2023-04-15T03:56:30;100205.94;;;0.22;33.77
70952;BME280;69214;55.880;37.542;2023-04-15T03:58:56;100215.22;;;0.38;33.76
70952;BME280;69214;55.880;37.542;2023-04-15T04:01:22;100211.50;;;0.48;33.46
70952;BME280;69214;55.880;37.542;2023-04-15T04:03:47;100221.03;;;0.60;33.53
70952;BME280;69214;55.880;37.542;2023-04-15T04:06:13;100219.13;;;0.71;33.25
70952;BME280;69214;55.880;37.542;2023-04-15T04:08:39;100201.50;;;0.68;32.82
70952;BME280;69214;55.880;37.542;2023-04-15T04:11:05;100227.53;;;0.85;33.07
70952;BME280;69214;55.880;37.542;2023-04-15T04:13:31;100226.34;;;0.97;32.82
70952;BME280;69214;55.880;37.542;2023-04-15T04:15:57;100230.34;;;1.11;32.95
70952;BME280;69214;55.880;37.542;2023-04-15T04:18:22;100219.28;;;1.32;32.56
70952;BME280;69214;55.880;37.542;2023-04-15T04:20:48;100243.47;;;1.50;32.53
70952;BME280;69214;55.880;37.542;2023-04-15T04:23:14;100241.03;;;1.56;32.58
70952;BME280;69214;55.880;37.542;2023-04-15T04:25:40;100240.78;;;1.68;32.40
70952;BME280;69214;55.880;37.542;2023-04-15T04:28:05;100226.34;;;1.69;32.12
70952;BME280;69214;55.880;37.542;2023-04-15T04:30:31;100251.50;;;1.85;32.83
70952;BME280;69214;55.880;37.542;2023-04-15T04:32:58;100235.28;;;1.95;31.67
70952;BME280;69214;55.880;37.542;2023-04-15T04:35:24;100251.94;;;1.99;31.87
70952;BME280;69214;55.880;37.542;2023-04-15T04:37:50;100244.09;;;2.05;31.49
70952;BME280;69214;55.880;37.542;2023-04-15T04:40:16;100232.69;;;2.11;31.99
70952;BME280;69214;55.880;37.542;2023-04-15T04:42:42;100240.06;;;2.35;32.30
70952;BME280;69214;55.880;37.542;2023-04-15T04:45:08;100239.78;;;2.46;32.02
70952;BME280;69214;55.880;37.542;2023-04-15T04:47:34;100235.81;;;2.58;31.23
70952;BME280;69214;55.880;37.542;2023-04-15T04:50:00;100227.34;;;2.87;31.45
70952;BME280;69214;55.880;37.542;2023-04-15T04:52:25;100225.75;;;3.27;31.28
70952;BME280;69214;55.880;37.542;2023-04-15T04:54:51;100243.81;;;3.51;30.88
70952;BME280;69214;55.880;37.542;2023-04-15T04:57:17;100224.22;;;3.24;30.24
70952;BME280;69214;55.880;37.542;2023-04-15T04:59:42;100225.91;;;3.25;30.15
70952;BME280;69214;55.880;37.542;2023-04-15T05:02:08;100248.38;;;3.58;30.77
70952;BME280;69214;55.880;37.542;2023-04-15T05:04:35;100246.69;;;3.66;30.66
70952;BME280;69214;55.880;37.542;2023-04-15T05:07:01;100239.28;;;3.84;31.04
70952;BME280;69214;55.880;37.542;2023-04-15T05:09:27;100245.53;;;3.84;30.37
70952;BME280;69214;55.880;37.542;2023-04-15T05:11:53;100245.88;;;3.81;30.63
70952;BME280;69214;55.880;37.542;2023-04-15T05:14:19;100240.28;;;3.67;30.26
70952;BME280;69214;55.880;37.542;2023-04-15T05:16:45;100241.63;;;3.63;30.31
70952;BME280;69214;55.880;37.542;2023-04-15T05:19:10;100235.75;;;3.75;29.72
70952;BME280;69214;55.880;37.542;2023-04-15T05:21:36;100237.56;;;4.07;30.48
70952;BME280;69214;55.880;37.542;2023-04-15T05:24:02;100243.75;;;4.40;29.34
70952;BME280;69214;55.880;37.542;2023-04-15T05:26:28;100243.03;;;4.54;29.95
70952;BME280;69214;55.880;37.542;2023-04-15T05:28:54;100243.72;;;4.57;29.51
70952;BME280;69214;55.880;37.542;2023-04-15T05:31:19;100233.19;;;4.70;29.74
70952;BME280;69214;55.880;37.542;2023-04-15T05:33:45;100247.53;;;5.09;29.71
70952;BME280;69214;55.880;37.542;2023-04-15T05:36:11;100253.69;;;5.49;28.90
70952;BME280;69214;55.880;37.542;2023-04-15T05:38:37;100220.84;;;5.52;28.56
70952;BME280;69214;55.880;37.542;2023-04-15T05:41:03;100234.03;;;5.32;28.56
70952;BME280;69214;55.880;37.542;2023-04-15T05:43:29;100250.44;;;5.31;29.66
70952;BME280;69214;55.880;37.542;2023-04-15T05:45:55;100247.72;;;5.31;29.15
70952;BME280;69214;55.880;37.542;2023-04-15T05:48:20;100255.91;;;5.22;29.64
70952;BME280;69214;55.880;37.542;2023-04-15T05:50:46;100257.00;;;5.13;28.88
70952;BME280;69214;55.880;37.542;2023-04-15T05:53:12;100262.25;;;5.07;28.91
70952;BME280;69214;55.880;37.542;2023-04-15T05:55:38;100256.38;;;5.26;28.94
70952;BME280;69214;55.880;37.542;2023-04-15T05:58:03;100260.97;;;5.71;29.76
70952;BME280;69214;55.880;37.542;2023-04-15T06:00:29;100257.75;;;5.99;28.51
70952;BME280;69214;55.880;37.542;2023-04-15T06:02:56;100275.97;;;6.05;29.48
70952;BME280;69214;55.880;37.542;2023-04-15T06:05:23;100264.78;;;5.85;27.78
70952;BME280;69214;55.880;37.542;2023-04-15T06:07:49;100270.16;;;5.93;28.55
70952;BME280;69214;55.880;37.542;2023-04-15T06:10:15;100250.50;;;6.14;27.49
70952;BME280;69214;55.880;37.542;2023-04-15T06:12:41;100277.72;;;6.35;28.27
70952;BME280;69214;55.880;37.542;2023-04-15T06:15:07;100263.91;;;6.45;27.39
70952;BME280;69214;55.880;37.542;2023-04-15T06:17:35;100265.03;;;6.80;27.81
70952;BME280;69214;55.880;37.542;2023-04-15T06:20:01;100268.63;;;7.31;26.79
70952;BME280;69214;55.880;37.542;2023-04-15T06:22:27;100277.75;;;7.81;26.21
70952;BME280;69214;55.880;37.542;2023-04-15T06:24:53;100268.47;;;8.18;25.77
70952;BME280;69214;55.880;37.542;2023-04-15T06:27:19;100284.38;;;8.21;26.97
70952;BME280;69214;55.880;37.542;2023-04-15T06:29:45;100286.44;;;8.19;26.38
70952;BME280;69214;55.880;37.542;2023-04-15T06:32:11;100266.16;;;8.71;26.74
70952;BME280;69214;55.880;37.542;2023-04-15T06:34:37;100267.94;;;9.39;25.55
70952;BME280;69214;55.880;37.542;2023-04-15T06:37:03;100262.84;;;9.91;25.57
70952;BME280;69214;55.880;37.542;2023-04-15T06:39:29;100276.03;;;10.66;24.66
70952;BME280;69214;55.880;37.542;2023-04-15T06:41:54;100278.69;;;11.06;25.70
70952;BME280;69214;55.880;37.542;2023-04-15T06:44:21;100274.34;;;10.72;24.72
70952;BME280;69214;55.880;37.542;2023-04-15T06:46:46;100266.75;;;10.87;24.28
70952;BME280;69214;55.880;37.542;2023-04-15T06:49:12;100280.47;;;11.77;23.09
70952;BME280;69214;55.880;37.542;2023-04-15T06:51:38;100280.25;;;12.84;24.60
70952;BME280;69214;55.880;37.542;2023-04-15T06:54:04;100270.94;;;13.28;22.16
70952;BME280;69214;55.880;37.542;2023-04-15T06:56:31;100292.28;;;13.02;21.95
70952;BME280;69214;55.880;37.542;2023-04-15T06:58:57;100282.75;;;12.43;21.52
70952;BME280;69214;55.880;37.542;2023-04-15T07:01:23;100280.78;;;12.50;21.43
70952;BME280;69214;55.880;37.542;2023-04-15T07:03:49;100279.00;;;13.23;21.89
70952;BME280;69214;55.880;37.542;2023-04-15T07:06:19;100286.41;;;14.54;21.11
70952;BME280;69214;55.880;37.542;2023-04-15T07:08:46;100266.50;;;15.34;22.07
70952;BME280;69214;55.880;37.542;2023-04-15T07:11:11;100254.84;;;15.15;20.14
70952;BME280;69214;55.880;37.542;2023-04-15T07:13:37;100286.38;;;15.65;20.01
70952;BME280;69214;55.880;37.542;2023-04-15T07:16:03;100291.84;;;16.22;19.80
70952;BME280;69214;55.880;37.542;2023-04-15T07:18:29;100288.16;;;15.99;21.21
70952;BME280;69214;55.880;37.542;2023-04-15T07:20:54;100285.19;;;15.20;19.91
70952;BME280;69214;55.880;37.542;2023-04-15T07:23:20;100279.94;;;15.87;18.97
70952;BME280;69214;55.880;37.542;2023-04-15T07:25:46;100287.78;;;16.91;19.44
70952;BME280;69214;55.880;37.542;2023-04-15T07:28:12;100278.22;;;17.59;18.36
70952;BME280;69214;55.880;37.542;2023-04-15T07:30:38;100274.25;;;18.26;17.94
70952;BME280;69214;55.880;37.542;2023-04-15T07:33:03;100270.50;;;19.11;18.34
70952;BME280;69214;55.880;37.542;2023-04-15T07:35:30;100270.13;;;18.97;16.75
70952;BME280;69214;55.880;37.542;2023-04-15T07:37:55;100275.69;;;18.33;17.17
70952;BME280;69214;55.880;37.542;2023-04-15T07:40:22;100283.22;;;18.38;18.80
70952;BME280;69214;55.880;37.542;2023-04-15T07:42:48;100283.38;;;17.99;18.55
70952;BME280;69214;55.880;37.542;2023-04-15T07:45:14;100268.63;;;18.16;18.23
70952;BME280;69214;55.880;37.542;2023-04-15T07:47:39;100271.03;;;17.58;17.90
70952;BME280;69214;55.880;37.542;2023-04-15T07:50:07;100269.88;;;17.32;19.53
70952;BME280;69214;55.880;37.542;2023-04-15T07:52:33;100276.59;;;16.81;17.84
70952;BME280;69214;55.880;37.542;2023-04-15T07:55:07;100278.34;;;16.37;20.32
70952;BME280;69214;55.880;37.542;2023-04-15T07:57:34;100275.75;;;16.13;19.00
70952;BME280;69214;55.880;37.542;2023-04-15T08:00:03;100258.72;;;15.71;18.21
70952;BME280;69214;55.880;37.542;2023-04-15T08:02:38;100277.28;;;15.93;17.93
70952;BME280;69214;55.880;37.542;2023-04-15T08:05:04;100283.28;;;16.51;18.66
70952;BME280;69214;55.880;37.542;2023-04-15T08:07:30;100267.16;;;16.43;17.90
70952;BME280;69214;55.880;37.542;2023-04-15T08:09:56;100269.59;;;16.73;17.59
70952;BME280;69214;55.880;37.542;2023-04-15T08:12:22;100264.38;;;16.94;17.35
70952;BME280;69214;55.880;37.542;2023-04-15T08:14:51;100267.19;;;16.77;17.73
70952;BME280;69214;55.880;37.542;2023-04-15T08:17:17;100273.06;;;15.73;17.80
70952;BME280;69214;55.880;37.542;2023-04-15T08:19:43;100259.53;;;13.91;18.35
70952;BME280;69214;55.880;37.542;2023-04-15T08:22:09;100290.06;;;12.24;19.24
70952;BME280;69214;55.880;37.542;2023-04-15T08:24:36;100279.81;;;10.72;20.13
70952;BME280;69214;55.880;37.542;2023-04-15T08:27:03;100297.22;;;9.92;21.47
70952;BME280;69214;55.880;37.542;2023-04-15T08:29:31;100289.13;;;9.44;21.81
70952;BME280;69214;55.880;37.542;2023-04-15T08:31:58;100271.88;;;8.83;22.70
70952;BME280;69214;55.880;37.542;2023-04-15T08:34:28;100279.31;;;8.39;22.13
70952;BME280;69214;55.880;37.542;2023-04-15T08:36:54;100280.31;;;8.10;22.67
70952;BME280;69214;55.880;37.542;2023-04-15T08:39:21;100268.47;;;7.97;23.20
70952;BME280;69214;55.880;37.542;2023-04-15T08:41:51;100291.13;;;8.04;22.76
70952;BME280;69214;55.880;37.542;2023-04-15T08:44:19;100278.75;;;7.59;23.51
70952;BME280;69214;55.880;37.542;2023-04-15T08:46:46;100270.44;;;7.09;22.75
70952;BME280;69214;55.880;37.542;2023-04-15T08:49:14;100272.16;;;6.96;23.45
70952;BME280;69214;55.880;37.542;2023-04-15T08:51:42;100269.34;;;7.04;23.37
70952;BME280;69214;55.880;37.542;2023-04-15T08:54:08;100266.06;;;6.79;23.48
70952;BME280;69214;55.880;37.542;2023-04-15T08:56:35;100262.91;;;6.61;23.16
70952;BME280;69214;55.880;37.542;2023-04-15T08:59:02;100260.44;;;6.36;23.27
70952;BME280;69214;55.880;37.542;2023-04-15T09:01:28;100268.50;;;6.44;23.53
70952;BME280;69214;55.880;37.542;2023-04-15T09:03:55;100259.25;;;6.68;23.97
70952;BME280;69214;55.880;37.542;2023-04-15T09:06:22;100268.59;;;6.95;23.58
70952;BME280;69214;55.880;37.542;2023-04-15T09:08:49;100263.53;;;6.92;23.21
70952;BME280;69214;55.880;37.542;2023-04-15T09:11:15;100255.22;;;6.79;23.72
70952;BME280;69214;55.880;37.542;2023-04-15T09:13:42;100254.09;;;6.88;27.94
70952;BME280;69214;55.880;37.542;2023-04-15T09:16:08;100258.06;;;7.22;23.47
70952;BME280;69214;55.880;37.542;2023-04-15T09:18:35;100245.53;;;7.21;23.48
70952;BME280;69214;55.880;37.542;2023-04-15T09:21:11;100243.56;;;7.14;23.80
70952;BME280;69214;55.880;37.542;2023-04-15T09:23:39;100251.34;;;7.18;24.19
70952;BME280;69214;55.880;37.542;2023-04-15T09:26:06;100235.50;;;7.21;23.03
70952;BME280;69214;55.880;37.542;2023-04-15T09:28:32;100257.63;;;7.18;23.24
70952;BME280;69214;55.880;37.542;2023-04-15T09:30:58;100250.53;;;7.02;22.89
70952;BME280;69214;55.880;37.542;2023-04-15T09:33:25;100247.44;;;7.05;23.25
70952;BME280;69214;55.880;37.542;2023-04-15T09:36:03;100251.41;;;7.24;23.82
70952;BME280;69214;55.880;37.542;2023-04-15T09:38:32;100250.22;;;7.48;24.52
70952;BME280;69214;55.880;37.542;2023-04-15T09:40:58;100249.09;;;7.78;23.55
70952;BME280;69214;55.880;37.542;2023-04-15T09:43:39;100233.03;;;7.84;23.35
70952;BME280;69214;55.880;37.542;2023-04-15T09:46:05;100268.28;;;7.98;22.63
70952;BME280;69214;55.880;37.542;2023-04-15T09:48:31;100247.44;;;8.05;21.98
70952;BME280;69214;55.880;37.542;2023-04-15T09:50:58;100261.16;;;8.19;22.31
70952;BME280;69214;55.880;37.542;2023-04-15T09:53:25;100243.50;;;8.08;22.42
70952;BME280;69214;55.880;37.542;2023-04-15T09:58:24;100249.06;;;8.00;23.29
70952;BME280;69214;55.880;37.542;2023-04-15T10:00:52;100232.66;;;7.87;23.10
70952;BME280;69214;55.880;37.542;2023-04-15T10:03:26;100260.91;;;7.92;23.36
70952;BME280;69214;55.880;37.542;2023-04-15T10:05:54;100258.38;;;7.91;22.29
70952;BME280;69214;55.880;37.542;2023-04-15T10:08:23;100258.84;;;7.94;22.99
70952;BME280;69214;55.880;37.542;2023-04-15T10:10:50;100250.44;;;7.89;22.56
70952;BME280;69214;55.880;37.542;2023-04-15T10:13:20;100263.44;;;7.94;22.17
70952;BME280;69214;55.880;37.542;2023-04-15T10:18:18;100234.56;;;8.14;21.96
70952;BME280;69214;55.880;37.542;2023-04-15T10:20:47;100258.22;;;8.41;22.20
70952;BME280;69214;55.880;37.542;2023-04-15T10:23:14;100241.44;;;8.38;21.97
70952;BME280;69214;55.880;37.542;2023-04-15T10:25:40;100257.88;;;8.51;21.86
70952;BME280;69214;55.880;37.542;2023-04-15T10:28:06;100249.88;;;8.77;21.78
70952;BME280;69214;55.880;37.542;2023-04-15T10:30:33;100253.06;;;8.88;21.65
70952;BME280;69214;55.880;37.542;2023-04-15T10:33:02;100243.81;;;8.82;21.73
70952;BME280;69214;55.880;37.542;2023-04-15T10:35:30;100251.38;;;8.87;22.36
70952;BME280;69214;55.880;37.542;2023-04-15T10:37:56;100238.91;;;9.05;23.07
70952;BME280;69214;55.880;37.542;2023-04-15T10:40:29;100258.47;;;9.29;21.44
70952;BME280;69214;55.880;37.542;2023-04-15T10:43:00;100237.94;;;9.26;21.55
70952;BME280;69214;55.880;37.542;2023-04-15T10:45:32;100243.50;;;9.05;22.68
70952;BME280;69214;55.880;37.542;2023-04-15T10:48:01;100246.34;;;8.84;21.62
70952;BME280;69214;55.880;37.542;2023-04-15T10:50:29;100223.25;;;8.73;22.24
70952;BME280;69214;55.880;37.542;2023-04-15T10:52:55;100244.72;;;8.96;21.66
70952;BME280;69214;55.880;37.542;2023-04-15T10:55:26;100244.53;;;8.97;22.30
70952;BME280;69214;55.880;37.542;2023-04-15T10:57:52;100238.69;;;9.00;22.23
70952;BME280;69214;55.880;37.542;2023-04-15T11:03:09;100234.53;;;9.11;23.30
70952;BME280;69214;55.880;37.542;2023-04-15T11:05:50;100228.03;;;9.12;23.08
70952;BME280;69214;55.880;37.542;2023-04-15T11:08:17;100229.09;;;9.11;21.76
70952;BME280;69214;55.880;37.542;2023-04-15T11:13:15;100228.44;;;9.02;21.74
70952;BME280;69214;55.880;37.542;2023-04-15T11:15:46;100222.78;;;9.04;22.25
70952;BME280;69214;55.880;37.542;2023-04-15T11:20:51;100219.75;;;9.33;21.76
70952;BME280;69214;55.880;37.542;2023-04-15T11:23:31;100240.75;;;9.53;22.45
70952;BME280;69214;55.880;37.542;2023-04-15T11:25:59;100219.78;;;9.47;22.49
70952;BME280;69214;55.880;37.542;2023-04-15T11:28:29;100216.00;;;9.41;21.34
70952;BME280;69214;55.880;37.542;2023-04-15T11:30:56;100216.44;;;9.51;21.50
70952;BME280;69214;55.880;37.542;2023-04-15T11:33:23;100220.84;;;9.52;21.95
70952;BME280;69214;55.880;37.542;2023-04-15T11:35:49;100220.19;;;9.50;22.89
70952;BME280;69214;55.880;37.542;2023-04-15T11:38:17;100210.56;;;9.48;22.31
70952;BME280;69214;55.880;37.542;2023-04-15T11:40:43;100213.03;;;9.36;22.84
70952;BME280;69214;55.880;37.542;2023-04-15T11:43:18;100220.75;;;9.26;22.39
70952;BME280;69214;55.880;37.542;2023-04-15T11:45:59;100209.25;;;9.30;23.23
70952;BME280;69214;55.880;37.542;2023-04-15T11:48:31;100202.56;;;9.39;22.43
70952;BME280;69214;55.880;37.542;2023-04-15T11:51:06;100187.91;;;9.40;23.19
70952;BME280;69214;55.880;37.542;2023-04-15T11:53:47;100236.53;;;9.44;22.02
70952;BME280;69214;55.880;37.542;2023-04-15T11:56:19;100206.75;;;9.29;22.52
70952;BME280;69214;55.880;37.542;2023-04-15T11:58:46;100192.44;;;9.14;21.91
70952;BME280;69214;55.880;37.542;2023-04-15T12:01:13;100183.88;;;9.17;22.12
70952;BME280;69214;55.880;37.542;2023-04-15T12:03:41;100193.56;;;9.39;21.81
70952;BME280;69214;55.880;37.542;2023-04-15T12:06:19;100195.88;;;9.35;21.12
70952;BME280;69214;55.880;37.542;2023-04-15T12:09:07;100189.56;;;9.28;22.97
70952;BME280;69214;55.880;37.542;2023-04-15T12:11:35;100190.97;;;9.11;22.08
70952;BME280;69214;55.880;37.542;2023-04-15T12:16:30;100183.41;;;9.06;22.06
70952;BME280;69214;55.880;37.542;2023-04-15T12:18:57;100177.78;;;9.08;22.72
70952;BME280;69214;55.880;37.542;2023-04-15T12:21:25;100176.06;;;9.00;22.12
70952;BME280;69214;55.880;37.542;2023-04-15T12:23:56;100173.13;;;9.02;23.51
70952;BME280;69214;55.880;37.542;2023-04-15T12:26:32;100178.84;;;9.14;22.44
70952;BME280;69214;55.880;37.542;2023-04-15T12:29:03;100170.47;;;9.22;22.17
70952;BME280;69214;55.880;37.542;2023-04-15T12:31:29;100189.16;;;9.38;22.50
70952;BME280;69214;55.880;37.542;2023-04-15T12:33:58;100177.38;;;9.18;22.44
70952;BME280;69214;55.880;37.542;2023-04-15T12:36:26;100190.16;;;9.17;22.17
70952;BME280;69214;55.880;37.542;2023-04-15T12:38:53;100182.13;;;8.96;21.98
70952;BME280;69214;55.880;37.542;2023-04-15T12:41:21;100162.97;;;8.69;22.42
70952;BME280;69214;55.880;37.542;2023-04-15T12:43:49;100167.41;;;8.77;22.71
70952;BME280;69214;55.880;37.542;2023-04-15T12:46:15;100184.59;;;8.84;22.53
70952;BME280;69214;55.880;37.542;2023-04-15T12:48:41;100167.53;;;8.62;21.94
70952;BME280;69214;55.880;37.542;2023-04-15T12:51:06;100184.13;;;8.74;22.67
70952;BME280;69214;55.880;37.542;2023-04-15T12:53:32;100180.34;;;8.68;22.51
70952;BME280;69214;55.880;37.542;2023-04-15T12:55:58;100166.06;;;8.60;21.85
70952;BME280;69214;55.880;37.542;2023-04-15T12:58:24;100182.03;;;8.76;22.61
70952;BME280;69214;55.880;37.542;2023-04-15T13:00:50;100180.81;;;8.85;22.18